createdAt,value
2022-10-11T00:01:04.612Z,8.80
2022-10-11T00:03:33.186Z,8.80
2022-10-11T00:06:03.631Z,8.70
2022-10-11T00:08:33.577Z,8.70
2022-10-11T00:11:04.554Z,8.70
2022-10-11T00:13:33.755Z,8.60
2022-10-11T00:16:02.637Z,8.50
2022-10-11T00:18:31.448Z,8.40
2022-10-11T00:21:08.405Z,8.40
2022-10-11T00:23:37.815Z,8.30
2022-10-11T00:26:09.173Z,8.30
2022-10-11T00:28:38.591Z,8.20
2022-10-11T00:31:12.918Z,8.20
2022-10-11T00:33:42.119Z,8.20
2022-10-11T00:36:13.000Z,8.20
2022-10-11T00:38:41.520Z,8.10
2022-10-11T00:41:10.024Z,8.10
2022-10-11T00:43:38.723Z,8.00
2022-10-11T00:46:10.250Z,8.00
2022-10-11T00:48:47.493Z,8.10
2022-10-11T00:51:34.042Z,8.10
2022-10-11T00:54:04.070Z,8.10
2022-10-11T00:56:35.979Z,8.10
2022-10-11T00:59:07.719Z,8.10
2022-10-11T01:01:36.188Z,8.10
2022-10-11T01:04:04.929Z,8.10
2022-10-11T01:06:34.411Z,8.10
2022-10-11T01:09:03.139Z,8.10
2022-10-11T01:11:32.726Z,8.10
2022-10-11T01:14:10.163Z,8.10
2022-10-11T01:17:08.960Z,8.00
2022-10-11T01:19:59.780Z,7.90
2022-10-11T01:23:02.928Z,7.90
2022-10-11T01:25:34.428Z,7.80
2022-10-11T01:28:20.753Z,7.90
2022-10-11T01:30:50.435Z,7.90
2022-10-11T01:33:28.030Z,7.90
2022-10-11T01:36:16.103Z,7.90
2022-10-11T01:38:50.371Z,7.90
2022-10-11T01:41:31.113Z,7.80
2022-10-11T01:44:02.189Z,7.80
2022-10-11T01:46:32.124Z,7.90
2022-10-11T01:49:02.420Z,7.80
2022-10-11T01:51:36.956Z,7.60
2022-10-11T01:54:24.835Z,7.70
2022-10-11T01:57:16.996Z,7.70
2022-10-11T02:00:05.136Z,7.60
2022-10-11T02:02:56.876Z,7.40
2022-10-11T02:05:37.020Z,7.30
2022-10-11T02:08:11.553Z,7.10
2022-10-11T02:10:54.972Z,6.90
2022-10-11T02:13:32.537Z,6.90
2022-10-11T02:16:04.687Z,7.20
2022-10-11T02:18:36.543Z,7.40
2022-10-11T02:21:08.493Z,7.40
2022-10-11T02:23:40.009Z,7.40
2022-10-11T02:26:11.344Z,7.40
2022-10-11T02:28:42.794Z,7.40
2022-10-11T02:31:13.303Z,7.40
2022-10-11T02:33:47.610Z,7.50
2022-10-11T02:36:23.334Z,7.40
2022-10-11T02:38:54.848Z,7.40
2022-10-11T02:41:32.228Z,7.50
2022-10-11T02:44:09.513Z,7.30
2022-10-11T02:46:39.059Z,7.30
2022-10-11T02:49:09.504Z,7.30
2022-10-11T02:51:38.119Z,7.20
2022-10-11T02:54:06.838Z,7.20
2022-10-11T02:56:35.401Z,7.20
2022-10-11T02:59:03.925Z,7.20
2022-10-11T03:01:32.397Z,7.10
2022-10-11T03:04:01.013Z,7.20
2022-10-11T03:06:29.471Z,7.10
2022-10-11T03:08:57.920Z,7.20
2022-10-11T03:11:26.407Z,7.10
2022-10-11T03:13:54.992Z,7.00
2022-10-11T03:16:23.564Z,7.10
2022-10-11T03:18:52.136Z,7.10
2022-10-11T03:21:20.595Z,7.10
2022-10-11T03:23:49.209Z,7.10
2022-10-11T03:26:18.093Z,7.10
2022-10-11T03:28:46.592Z,7.10
2022-10-11T03:31:15.063Z,7.00
2022-10-11T03:33:43.493Z,7.00
2022-10-11T03:36:12.041Z,7.10
2022-10-11T03:38:40.639Z,6.90
2022-10-11T03:41:09.408Z,7.00
2022-10-11T03:43:37.929Z,6.90
2022-10-11T03:46:07.058Z,6.90
2022-10-11T03:48:35.908Z,6.90
2022-10-11T03:51:04.498Z,7.00
2022-10-11T03:53:32.999Z,6.90
2022-10-11T03:56:05.869Z,6.90
2022-10-11T03:58:31.686Z,6.90
2022-10-11T04:01:00.373Z,6.90
2022-10-11T04:03:28.977Z,6.80
2022-10-11T04:05:57.407Z,6.90
2022-10-11T04:08:25.957Z,6.80
2022-10-11T04:10:54.536Z,6.90
2022-10-11T04:13:23.046Z,6.80
2022-10-11T04:15:51.514Z,6.90
2022-10-11T04:18:20.002Z,6.80
2022-10-11T04:20:48.656Z,6.80
2022-10-11T04:23:17.145Z,6.90
2022-10-11T04:25:46.818Z,6.80
2022-10-11T04:28:15.517Z,6.80
2022-10-11T04:30:44.787Z,6.90
2022-10-11T04:33:13.260Z,6.80
2022-10-11T04:35:41.861Z,6.60
2022-10-11T04:38:10.558Z,6.60
2022-10-11T04:40:39.217Z,6.70
2022-10-11T04:43:07.729Z,6.50
2022-10-11T04:45:36.186Z,6.60
2022-10-11T04:48:04.723Z,6.60
2022-10-11T04:50:33.262Z,6.50
2022-10-11T04:53:02.000Z,6.50
2022-10-11T04:55:30.505Z,6.50
2022-10-11T04:57:58.978Z,6.30
2022-10-11T05:00:27.502Z,6.30
2022-10-11T05:02:56.048Z,6.20
2022-10-11T05:05:24.533Z,6.30
2022-10-11T05:07:53.017Z,6.50
2022-10-11T05:10:21.554Z,6.50
2022-10-11T05:12:50.023Z,6.40
2022-10-11T05:15:18.540Z,6.50
2022-10-11T05:17:46.964Z,6.50
2022-10-11T05:20:15.798Z,6.50
2022-10-11T05:22:44.582Z,6.50
2022-10-11T05:25:13.025Z,6.60
2022-10-11T05:27:41.482Z,6.50
2022-10-11T05:30:10.585Z,6.30
2022-10-11T05:32:39.052Z,6.10
2022-10-11T05:35:08.060Z,5.80
2022-10-11T05:37:36.638Z,5.60
2022-10-11T05:40:05.635Z,5.50
2022-10-11T05:42:34.167Z,5.40
2022-10-11T05:45:02.699Z,5.30
2022-10-11T05:47:31.301Z,5.20
2022-10-11T05:49:59.786Z,5.20
2022-10-11T05:52:28.253Z,5.20
2022-10-11T05:54:56.712Z,5.20
2022-10-11T05:57:25.245Z,5.20
2022-10-11T05:59:53.701Z,5.20
2022-10-11T06:02:22.289Z,5.30
2022-10-11T06:04:50.763Z,5.40
2022-10-11T06:07:19.297Z,5.60
2022-10-11T06:09:47.888Z,5.70
2022-10-11T06:12:17.190Z,5.70
2022-10-11T06:14:45.690Z,5.80
2022-10-11T06:17:14.406Z,6.20
2022-10-11T06:19:42.929Z,6.30
2022-10-11T06:22:12.861Z,6.40
2022-10-11T06:24:41.321Z,6.60
2022-10-11T06:27:09.905Z,6.60
2022-10-11T06:29:38.348Z,6.80
2022-10-11T06:32:06.827Z,6.90
2022-10-11T06:34:35.438Z,7.10
2022-10-11T06:37:03.941Z,7.50
2022-10-11T06:39:32.413Z,7.60
2022-10-11T06:42:00.852Z,7.80
2022-10-11T06:44:29.538Z,7.90
2022-10-11T06:46:57.983Z,8.00
2022-10-11T06:49:26.589Z,8.30
2022-10-11T06:51:55.097Z,8.60
2022-10-11T06:54:23.608Z,8.60
2022-10-11T06:56:52.113Z,8.90
2022-10-11T06:59:21.200Z,9.30
2022-10-11T07:01:49.760Z,9.50
2022-10-11T07:04:18.380Z,9.30
2022-10-11T07:06:46.828Z,9.30
2022-10-11T07:09:15.306Z,9.60
2022-10-11T07:11:43.804Z,9.90
2022-10-11T07:14:12.276Z,10.20
2022-10-11T07:16:40.747Z,10.30
2022-10-11T07:19:09.270Z,10.80
2022-10-11T07:21:38.046Z,10.80
2022-10-11T07:24:06.965Z,10.70
2022-10-11T07:26:38.321Z,10.70
2022-10-11T07:29:08.342Z,10.80
2022-10-11T07:31:39.254Z,10.80
2022-10-11T07:34:08.328Z,11.10
2022-10-11T07:36:37.220Z,11.50
2022-10-11T07:39:07.915Z,11.60
2022-10-11T07:41:41.941Z,11.90
2022-10-11T07:44:08.844Z,12.30
2022-10-11T07:46:37.344Z,12.20
2022-10-11T07:49:05.863Z,12.30
2022-10-11T07:51:34.381Z,12.50
2022-10-11T07:54:07.287Z,13.00
2022-10-11T07:56:35.405Z,13.30
2022-10-11T07:59:03.917Z,13.90
2022-10-11T08:01:33.234Z,14.30
2022-10-11T08:04:01.935Z,14.30
2022-10-11T08:06:32.582Z,15.30
2022-10-11T08:09:02.439Z,14.80
2022-10-11T08:11:33.724Z,15.30
2022-10-11T08:14:06.061Z,15.60
2022-10-11T08:16:34.855Z,15.30
2022-10-11T08:19:03.425Z,16.00
2022-10-11T08:21:32.362Z,15.50
2022-10-11T08:24:02.104Z,15.70
2022-10-11T08:26:31.294Z,16.20
2022-10-11T08:29:02.278Z,15.90
2022-10-11T08:31:30.864Z,15.20
2022-10-11T08:33:59.299Z,15.50
2022-10-11T08:36:27.902Z,15.70
2022-10-11T08:38:56.393Z,16.40
2022-10-11T08:41:34.062Z,17.60
2022-10-11T08:44:24.966Z,17.10
2022-10-11T08:47:00.287Z,17.90
2022-10-11T08:49:30.140Z,17.40
2022-10-11T08:52:03.622Z,17.90
2022-10-11T08:54:54.375Z,18.00
2022-10-11T08:57:25.682Z,17.40
2022-10-11T09:00:12.412Z,18.70
2022-10-11T09:03:07.419Z,19.30
2022-10-11T09:05:19.939Z,18.70
2022-10-11T09:08:09.378Z,19.20
2022-10-11T09:10:43.463Z,19.90
2022-10-11T09:13:39.145Z,19.20
2022-10-11T09:16:27.202Z,18.90
2022-10-11T09:19:01.599Z,19.50
2022-10-11T09:21:47.823Z,19.50
2022-10-11T09:24:30.719Z,18.50
2022-10-11T09:27:01.684Z,19.90
2022-10-11T09:29:48.026Z,20.20
2022-10-11T09:32:21.029Z,20.50
2022-10-11T09:34:55.273Z,18.80
2022-10-11T09:37:35.300Z,20.50
2022-10-11T09:40:12.576Z,21.00
2022-10-11T09:42:45.713Z,21.30
2022-10-11T09:45:17.663Z,22.10
2022-10-11T09:47:46.281Z,21.00
2022-10-11T09:50:18.316Z,21.30
2022-10-11T09:52:52.138Z,22.50
2022-10-11T09:55:44.481Z,22.00
2022-10-11T09:58:38.415Z,21.50
2022-10-11T10:01:10.120Z,21.40
2022-10-11T10:03:41.629Z,22.60
2022-10-11T10:06:24.840Z,24.80
2022-10-11T10:08:53.353Z,24.60
2022-10-11T10:11:22.416Z,25.60
2022-10-11T10:13:54.159Z,25.40
2022-10-11T10:16:28.587Z,24.30
2022-10-11T10:19:03.408Z,24.90
2022-10-11T10:21:38.016Z,25.60
2022-10-11T10:24:12.037Z,24.80
2022-10-11T10:26:40.477Z,25.10
2022-10-11T10:29:16.173Z,25.10
2022-10-11T10:34:30.389Z,24.40
2022-10-11T10:37:02.252Z,25.20
2022-10-11T10:39:36.368Z,25.50
2022-10-11T10:42:07.908Z,25.90
2022-10-11T10:44:36.541Z,26.00
2022-10-11T10:47:22.665Z,26.20
2022-10-11T10:50:28.492Z,27.40
2022-10-11T10:55:38.560Z,26.00
2022-10-11T10:58:18.745Z,25.20
2022-10-11T11:00:55.941Z,26.10
2022-10-11T11:03:34.493Z,27.00
2022-10-11T11:06:10.431Z,27.60
2022-10-11T11:08:51.089Z,26.40
2022-10-11T11:11:48.126Z,26.40
2022-10-11T11:14:36.196Z,27.80
2022-10-11T11:17:16.568Z,27.50
2022-10-11T11:20:05.835Z,25.50
2022-10-11T11:22:40.044Z,26.10
2022-10-11T11:25:17.344Z,28.30
2022-10-11T11:28:05.416Z,29.50
2022-10-11T11:30:45.861Z,29.10
2022-10-11T11:33:26.221Z,29.20
2022-10-11T11:35:57.538Z,29.70
2022-10-11T11:39:00.913Z,28.70
2022-10-11T11:41:38.488Z,29.50
2022-10-11T11:44:18.892Z,31.20
2022-10-11T11:46:57.362Z,30.00
2022-10-11T11:49:41.120Z,29.00
2022-10-11T11:52:15.297Z,25.40
2022-10-11T11:55:04.557Z,23.50
2022-10-11T11:57:52.671Z,21.80
2022-10-11T12:00:27.147Z,21.60
2022-10-11T12:03:04.366Z,23.10
2022-10-11T12:05:36.168Z,20.70
2022-10-11T12:08:10.392Z,20.00
2022-10-11T12:10:53.740Z,19.00
2022-10-11T12:13:32.260Z,18.50
2022-10-11T12:16:00.664Z,19.90
2022-10-11T12:18:31.123Z,21.30
2022-10-11T12:21:08.074Z,23.10
2022-10-11T12:23:40.100Z,24.40
2022-10-11T12:26:31.069Z,27.10
2022-10-11T12:29:05.553Z,26.10
2022-10-11T12:31:36.201Z,28.80
2022-10-11T12:34:10.267Z,30.60
2022-10-11T12:36:49.941Z,30.00
2022-10-11T12:39:25.480Z,29.10
2022-10-11T12:41:56.633Z,27.40
2022-10-11T12:44:29.373Z,24.10
2022-10-11T12:47:00.951Z,22.70
2022-10-11T12:49:51.895Z,21.00
2022-10-11T12:52:26.808Z,20.00
2022-10-11T12:55:10.041Z,18.60
2022-10-11T12:57:47.359Z,18.00
2022-10-11T13:00:21.916Z,18.00
2022-10-11T13:02:50.920Z,18.00
2022-10-11T13:05:25.381Z,17.70
2022-10-11T13:07:59.244Z,17.90
2022-10-11T13:10:30.758Z,17.60
2022-10-11T13:13:02.096Z,17.50
2022-10-11T13:15:31.052Z,16.80
2022-10-11T13:18:01.397Z,16.40
2022-10-11T13:20:37.565Z,16.70
2022-10-11T13:23:09.052Z,16.60
2022-10-11T13:25:38.727Z,18.00
2022-10-11T13:28:09.687Z,20.70
2022-10-11T13:30:40.624Z,20.10
2022-10-11T13:33:12.171Z,19.40
2022-10-11T13:35:40.789Z,18.90
2022-10-11T13:38:11.718Z,20.70
2022-10-11T13:40:40.284Z,22.60
2022-10-11T13:43:09.374Z,23.70
2022-10-11T13:45:40.528Z,23.70
2022-10-11T13:48:12.031Z,23.30
2022-10-11T13:50:42.233Z,24.90
2022-10-11T13:53:13.800Z,25.30
2022-10-11T13:55:57.171Z,25.40
2022-10-11T13:58:38.520Z,25.30
2022-10-11T14:01:10.617Z,24.80
2022-10-11T14:03:42.280Z,24.90
2022-10-11T14:06:11.373Z,24.80
2022-10-11T14:08:49.011Z,25.60
2022-10-11T14:11:19.192Z,25.90
2022-10-11T14:13:50.327Z,25.70
2022-10-11T14:16:27.114Z,26.20
2022-10-11T14:19:04.464Z,25.40
2022-10-11T14:21:36.297Z,25.90
2022-10-11T14:24:09.872Z,27.30
2022-10-11T14:26:40.817Z,26.70
2022-10-11T14:29:24.345Z,26.70
2022-10-11T14:31:55.978Z,25.80
2022-10-11T14:34:26.428Z,25.70
2022-10-11T14:36:55.189Z,25.10
2022-10-11T14:39:25.979Z,24.80
2022-10-11T14:41:55.436Z,24.90
2022-10-11T14:44:24.507Z,26.20
2022-10-11T14:46:55.135Z,25.70
2022-10-11T14:49:29.733Z,25.60
2022-10-11T14:51:59.471Z,25.50
2022-10-11T14:54:29.544Z,25.30
2022-10-11T14:57:00.739Z,25.40
2022-10-11T14:59:34.538Z,24.80
2022-10-11T15:02:04.425Z,24.20
2022-10-11T15:04:33.099Z,25.20
2022-10-11T15:07:02.241Z,25.80
2022-10-11T15:09:31.319Z,25.60
2022-10-11T15:11:59.930Z,26.50
2022-10-11T15:14:28.531Z,25.30
2022-10-11T15:16:57.046Z,24.30
2022-10-11T15:19:26.027Z,24.10
2022-10-11T15:21:54.653Z,24.10
2022-10-11T15:24:23.177Z,23.80
2022-10-11T15:26:51.749Z,23.10
2022-10-11T15:29:21.902Z,23.20
2022-10-11T15:31:50.585Z,22.90
2022-10-11T15:34:20.004Z,22.30
2022-10-11T15:36:49.846Z,22.30
2022-10-11T15:39:31.442Z,22.20
2022-10-11T15:41:59.998Z,21.90
2022-10-11T15:44:28.613Z,21.60
2022-10-11T15:46:57.071Z,20.80
2022-10-11T15:49:25.601Z,21.10
2022-10-11T15:51:54.071Z,20.10
2022-10-11T15:54:22.582Z,20.10
2022-10-11T15:56:51.056Z,20.10
2022-10-11T15:59:19.619Z,19.70
2022-10-11T16:01:48.153Z,19.30
2022-10-11T16:04:16.775Z,17.50
2022-10-11T16:06:45.491Z,16.40
2022-10-11T16:09:13.975Z,15.60
2022-10-11T16:11:42.444Z,15.10
2022-10-11T16:14:10.924Z,14.70
2022-10-11T16:16:39.534Z,14.50
2022-10-11T16:19:08.173Z,14.20
2022-10-11T16:21:36.724Z,14.00
2022-10-11T16:24:05.295Z,13.80
2022-10-11T16:26:33.764Z,13.50
2022-10-11T16:29:02.295Z,13.30
2022-10-11T16:31:30.860Z,13.30
2022-10-11T16:33:59.324Z,13.10
2022-10-11T16:39:16.355Z,13.00
2022-10-11T16:41:45.709Z,12.50
2022-10-11T16:44:17.393Z,12.30
2022-10-11T16:46:48.653Z,12.20
2022-10-11T16:49:19.451Z,11.90
2022-10-11T16:51:47.972Z,11.80
2022-10-11T16:54:20.569Z,11.60
2022-10-11T16:59:16.536Z,11.30
2022-10-11T17:01:45.864Z,11.20
2022-10-11T17:04:15.261Z,11.00
2022-10-11T17:06:46.448Z,10.90
2022-10-11T17:09:15.828Z,10.80
2022-10-11T17:11:44.916Z,10.60
2022-10-11T17:14:14.366Z,10.50
2022-10-11T17:16:43.101Z,10.40
2022-10-11T17:19:16.534Z,10.30
2022-10-11T17:21:45.354Z,10.20
2022-10-11T17:24:13.806Z,10.00
2022-10-11T17:26:42.283Z,9.90
2022-10-11T17:29:16.197Z,9.80
2022-10-11T17:31:48.999Z,9.70
2022-10-11T17:34:17.073Z,9.50
2022-10-11T17:39:17.040Z,9.40
2022-10-11T17:41:45.876Z,9.30
2022-10-11T17:44:16.673Z,9.30
2022-10-11T17:46:45.753Z,9.20
2022-10-11T17:49:14.304Z,9.20
2022-10-11T17:51:43.671Z,9.20
2022-10-11T17:54:12.952Z,9.20
2022-10-11T17:56:42.526Z,9.10
2022-10-11T17:59:14.222Z,9.00
2022-10-11T18:01:42.776Z,8.80
2022-10-11T18:04:13.101Z,8.80
2022-10-11T18:06:43.445Z,8.60
2022-10-11T18:09:13.277Z,8.50
2022-10-11T18:11:41.745Z,8.40
2022-10-11T18:14:10.456Z,8.50
2022-10-11T18:16:39.759Z,8.40
2022-10-11T18:19:11.339Z,8.30
2022-10-11T18:21:40.358Z,8.30
2022-10-11T18:24:16.233Z,8.30
2022-10-11T18:26:46.380Z,8.20
2022-10-11T18:29:15.263Z,8.20
2022-10-11T18:31:43.921Z,8.10
2022-10-11T18:34:15.699Z,8.00
2022-10-11T18:36:44.305Z,8.00
2022-10-11T18:39:15.269Z,7.90
2022-10-11T18:41:44.277Z,7.80
2022-10-11T18:44:15.702Z,7.80
2022-10-11T18:46:45.567Z,7.70
2022-10-11T18:49:14.413Z,7.70
2022-10-11T18:51:45.377Z,7.60
2022-10-11T18:54:16.983Z,7.60
2022-10-11T18:56:44.824Z,7.50
2022-10-11T18:59:13.276Z,7.50
2022-10-11T19:01:44.591Z,7.50
2022-10-11T19:04:16.898Z,7.40
2022-10-11T19:06:47.882Z,7.40
2022-10-11T19:09:25.844Z,7.30
2022-10-11T19:11:56.335Z,7.30
2022-10-11T19:14:28.487Z,7.20
2022-10-11T19:16:57.613Z,7.10
2022-10-11T19:19:29.105Z,7.10
2022-10-11T19:21:57.691Z,7.20
2022-10-11T19:24:30.362Z,7.10
2022-10-11T19:27:02.511Z,7.10
2022-10-11T19:29:30.397Z,6.90
2022-10-11T19:32:01.377Z,6.80
2022-10-11T19:34:31.878Z,6.90
2022-10-11T19:37:01.035Z,6.80
2022-10-11T19:39:30.542Z,6.70
2022-10-11T19:42:00.158Z,6.70
2022-10-11T19:44:28.769Z,6.50
2022-10-11T19:47:01.458Z,6.60
2022-10-11T19:49:27.433Z,6.50
2022-10-11T19:51:55.880Z,6.40
2022-10-11T19:54:24.508Z,6.40
2022-10-11T19:56:53.172Z,6.30
2022-10-11T19:59:21.916Z,6.20
2022-10-11T20:01:53.071Z,6.20
2022-10-11T20:06:51.790Z,6.10
2022-10-11T20:09:35.755Z,6.00
2022-10-11T20:11:50.597Z,6.00
2022-10-11T20:14:19.156Z,6.00
2022-10-11T20:16:49.173Z,5.90
2022-10-11T20:19:17.903Z,5.90
2022-10-11T20:21:46.766Z,5.90
2022-10-11T20:24:15.357Z,5.80
2022-10-11T20:26:43.808Z,5.70
2022-10-11T20:29:12.352Z,5.70
2022-10-11T20:31:41.753Z,5.70
2022-10-11T20:34:10.896Z,5.60
2022-10-11T20:36:39.422Z,5.60
2022-10-11T20:39:08.212Z,5.60
2022-10-11T20:41:40.025Z,5.50
2022-10-11T20:44:09.561Z,5.40
2022-10-11T20:46:39.725Z,5.50
2022-10-11T20:49:11.163Z,5.40
2022-10-11T20:51:41.397Z,5.40
2022-10-11T20:54:10.597Z,5.30
2022-10-11T20:56:39.604Z,5.30
2022-10-11T20:59:08.799Z,5.30
2022-10-11T21:01:40.542Z,5.30
2022-10-11T21:04:12.218Z,5.30
2022-10-11T21:06:40.667Z,5.30
2022-10-11T21:09:11.276Z,5.20
2022-10-11T21:11:39.346Z,5.10
2022-10-11T21:14:08.049Z,5.10
2022-10-11T21:16:37.998Z,5.10
2022-10-11T21:19:06.537Z,5.10
2022-10-11T21:21:35.095Z,5.10
2022-10-11T21:24:04.073Z,5.00
2022-10-11T21:26:32.607Z,5.00
2022-10-11T21:29:01.190Z,5.00
2022-10-11T21:31:33.806Z,4.90
2022-10-11T21:34:00.245Z,4.90
2022-10-11T21:36:28.921Z,4.80
2022-10-11T21:38:57.614Z,4.80
2022-10-11T21:41:29.163Z,4.80
2022-10-11T21:43:57.993Z,4.70
2022-10-11T21:48:59.418Z,4.60
2022-10-11T21:51:32.782Z,4.60
2022-10-11T21:54:01.572Z,4.60
2022-10-11T21:56:30.551Z,4.60
2022-10-11T21:58:59.215Z,4.60
2022-10-11T22:01:27.957Z,4.50
2022-10-11T22:03:56.522Z,4.50
2022-10-11T22:06:24.981Z,4.50
2022-10-11T22:08:53.453Z,4.50
2022-10-11T22:11:21.900Z,4.50
2022-10-11T22:13:50.485Z,4.40
2022-10-11T22:16:19.103Z,4.40
2022-10-11T22:18:47.687Z,4.40
2022-10-11T22:21:19.183Z,4.30
2022-10-11T22:23:50.122Z,4.30
2022-10-11T22:26:22.127Z,4.30
2022-10-11T22:28:50.885Z,4.30
2022-10-11T22:31:20.997Z,4.30
2022-10-11T22:33:49.784Z,4.20
2022-10-11T22:36:19.234Z,4.10
2022-10-11T22:38:47.901Z,4.10
2022-10-11T22:41:16.447Z,4.10
2022-10-11T22:43:45.113Z,4.10
2022-10-11T22:46:13.583Z,4.00
2022-10-11T22:48:42.116Z,4.00
2022-10-11T22:51:10.632Z,4.00
2022-10-11T22:53:39.748Z,4.10
2022-10-11T22:56:09.212Z,4.10
2022-10-11T22:58:37.741Z,4.00
2022-10-11T23:01:11.345Z,3.90
2022-10-11T23:03:40.157Z,4.00
2022-10-11T23:06:08.955Z,4.00
2022-10-11T23:08:37.499Z,4.00
2022-10-11T23:11:07.970Z,3.90
2022-10-11T23:13:36.561Z,3.90
2022-10-11T23:16:09.646Z,3.80
2022-10-11T23:18:38.307Z,3.70
2022-10-11T23:21:07.706Z,3.80
2022-10-11T23:23:36.500Z,3.90
2022-10-11T23:26:13.309Z,3.80
2022-10-11T23:28:41.969Z,3.90
2022-10-11T23:31:16.599Z,3.80
2022-10-11T23:33:46.582Z,3.70
2022-10-11T23:36:18.086Z,3.70
2022-10-11T23:38:48.394Z,3.70
2022-10-11T23:41:16.996Z,3.60
2022-10-11T23:43:45.650Z,3.60
2022-10-11T23:46:14.253Z,3.50
2022-10-11T23:48:42.827Z,3.60
2022-10-11T23:51:11.633Z,3.50
2022-10-11T23:53:40.137Z,3.50
2022-10-11T23:56:10.396Z,3.40
2022-10-11T23:58:39.027Z,3.40
